sensor_id;sensor_type;location;lat;lon;timestamp;pressure;altitude;pressure_sealevel;temperature;humidity
25084;BME280;13075;55.682;37.564;2023-05-14T00:02:18;100080.69;;;22.20;37.21
25084;BME280;13075;55.682;37.564;2023-05-14T00:04:44;100082.56;;;22.14;37.40
25084;BME280;13075;55.682;37.564;2023-05-14T00:07:09;100077.81;;;22.37;37.12
25084;BME280;13075;55.682;37.564;2023-05-14T00:09:35;100083.00;;;22.38;37.34
25084;BME280;13075;55.682;37.564;2023-05-14T00:12:01;100078.75;;;22.15;37.58
25084;BME280;13075;55.682;37.564;2023-05-14T00:14:27;100083.97;;;21.85;37.82
25084;BME280;13075;55.682;37.564;2023-05-14T00:16:52;100073.38;;;21.89;38.08
25084;BME280;13075;55.682;37.564;2023-05-14T00:19:17;100082.09;;;21.86;37.89
25084;BME280;13075;55.682;37.564;2023-05-14T00:21:43;100079.66;;;21.89;37.83
25084;BME280;13075;55.682;37.564;2023-05-14T00:24:08;100085.59;;;22.18;37.75
25084;BME280;13075;55.682;37.564;2023-05-14T00:26:34;100077.94;;;21.78;38.23
25084;BME280;13075;55.682;37.564;2023-05-14T00:28:59;100079.59;;;21.84;38.07
25084;BME280;13075;55.682;37.564;2023-05-14T00:31:25;100080.28;;;21.96;38.04
25084;BME280;13075;55.682;37.564;2023-05-14T00:33:50;100084.66;;;22.02;37.87
25084;BME280;13075;55.682;37.564;2023-05-14T00:36:16;100083.81;;;21.65;38.48
25084;BME280;13075;55.682;37.564;2023-05-14T00:38:41;100078.16;;;21.77;38.44
25084;BME280;13075;55.682;37.564;2023-05-14T00:41:07;100077.25;;;21.66;38.55
25084;BME280;13075;55.682;37.564;2023-05-14T00:43:32;100079.66;;;21.89;38.50
25084;BME280;13075;55.682;37.564;2023-05-14T00:45:58;100080.06;;;22.08;38.21
25084;BME280;13075;55.682;37.564;2023-05-14T00:48:23;100081.66;;;21.99;38.23
25084;BME280;13075;55.682;37.564;2023-05-14T00:50:49;100080.75;;;21.88;38.38
25084;BME280;13075;55.682;37.564;2023-05-14T00:53:15;100094.03;;;21.85;38.56
25084;BME280;13075;55.682;37.564;2023-05-14T00:55:41;100084.91;;;21.69;39.07
25084;BME280;13075;55.682;37.564;2023-05-14T00:58:08;100091.34;;;21.58;38.98
25084;BME280;13075;55.682;37.564;2023-05-14T01:03:15;100093.09;;;21.69;39.01
25084;BME280;13075;55.682;37.564;2023-05-14T01:10:46;100095.34;;;21.77;39.31
25084;BME280;13075;55.682;37.564;2023-05-14T01:13:27;100101.34;;;21.79;39.33
25084;BME280;13075;55.682;37.564;2023-05-14T01:15:57;100099.75;;;21.51;39.40
25084;BME280;13075;55.682;37.564;2023-05-14T01:18:24;100093.59;;;21.66;39.46
25084;BME280;13075;55.682;37.564;2023-05-14T01:20:50;100099.53;;;21.31;39.63
25084;BME280;13075;55.682;37.564;2023-05-14T01:23:18;100094.38;;;21.61;39.47
25084;BME280;13075;55.682;37.564;2023-05-14T01:25:44;100093.91;;;21.69;39.68
25084;BME280;13075;55.682;37.564;2023-05-14T01:30:59;100090.03;;;21.65;39.74
25084;BME280;13075;55.682;37.564;2023-05-14T01:33:28;100107.69;;;21.58;39.92
25084;BME280;13075;55.682;37.564;2023-05-14T01:35:54;100110.22;;;21.64;39.60
25084;BME280;13075;55.682;37.564;2023-05-14T01:38:20;100107.69;;;21.58;39.74
25084;BME280;13075;55.682;37.564;2023-05-14T01:40:46;100117.91;;;21.46;40.35
25084;BME280;13075;55.682;37.564;2023-05-14T01:43:12;100115.91;;;21.63;40.03
25084;BME280;13075;55.682;37.564;2023-05-14T01:45:39;100118.34;;;21.59;40.27
25084;BME280;13075;55.682;37.564;2023-05-14T01:48:04;100123.53;;;21.34;40.37
25084;BME280;13075;55.682;37.564;2023-05-14T01:50:30;100121.56;;;20.86;41.06
25084;BME280;13075;55.682;37.564;2023-05-14T01:52:56;100129.63;;;21.46;40.21
25084;BME280;13075;55.682;37.564;2023-05-14T01:55:22;100121.75;;;21.50;40.30
25084;BME280;13075;55.682;37.564;2023-05-14T01:57:50;100130.72;;;21.45;40.20
25084;BME280;13075;55.682;37.564;2023-05-14T02:00:16;100123.69;;;21.49;40.65
25084;BME280;13075;55.682;37.564;2023-05-14T02:02:41;100125.28;;;21.02;41.13
25084;BME280;13075;55.682;37.564;2023-05-14T02:05:10;100132.63;;;21.01;40.91
25084;BME280;13075;55.682;37.564;2023-05-14T02:07:36;100137.97;;;21.13;40.79
25084;BME280;13075;55.682;37.564;2023-05-14T02:10:01;100137.09;;;21.07;40.89
25084;BME280;13075;55.682;37.564;2023-05-14T02:12:27;100131.78;;;21.01;41.00
25084;BME280;13075;55.682;37.564;2023-05-14T02:14:52;100139.72;;;21.02;41.07
25084;BME280;13075;55.682;37.564;2023-05-14T02:17:18;100144.28;;;20.97;41.08
25084;BME280;13075;55.682;37.564;2023-05-14T02:19:44;100136.50;;;20.84;41.32
25084;BME280;13075;55.682;37.564;2023-05-14T02:22:09;100142.72;;;21.23;40.81
25084;BME280;13075;55.682;37.564;2023-05-14T02:24:34;100148.09;;;20.58;41.59
25084;BME280;13075;55.682;37.564;2023-05-14T02:27:00;100147.88;;;20.59;41.72
25084;BME280;13075;55.682;37.564;2023-05-14T02:29:26;100148.00;;;20.31;42.24
25084;BME280;13075;55.682;37.564;2023-05-14T02:31:51;100146.88;;;20.48;41.94
25084;BME280;13075;55.682;37.564;2023-05-14T02:34:16;100156.28;;;20.41;42.16
25084;BME280;13075;55.682;37.564;2023-05-14T02:36:42;100155.59;;;20.67;41.63
25084;BME280;13075;55.682;37.564;2023-05-14T02:39:07;100153.94;;;20.49;42.03
25084;BME280;13075;55.682;37.564;2023-05-14T02:41:33;100149.53;;;20.43;42.08
25084;BME280;13075;55.682;37.564;2023-05-14T02:43:58;100157.34;;;20.40;42.37
25084;BME280;13075;55.682;37.564;2023-05-14T02:46:24;100160.84;;;20.74;41.88
25084;BME280;13075;55.682;37.564;2023-05-14T02:48:49;100165.38;;;20.68;42.00
25084;BME280;13075;55.682;37.564;2023-05-14T02:51:15;100167.75;;;20.81;41.67
25084;BME280;13075;55.682;37.564;2023-05-14T02:53:41;100158.91;;;20.52;42.32
25084;BME280;13075;55.682;37.564;2023-05-14T02:56:06;100167.38;;;20.56;42.26
25084;BME280;13075;55.682;37.564;2023-05-14T02:58:32;100173.72;;;20.62;42.20
25084;BME280;13075;55.682;37.564;2023-05-14T03:00:58;100167.34;;;20.73;41.92
25084;BME280;13075;55.682;37.564;2023-05-14T03:03:23;100171.81;;;21.00;41.82
25084;BME280;13075;55.682;37.564;2023-05-14T03:05:49;100172.53;;;20.96;41.82
25084;BME280;13075;55.682;37.564;2023-05-14T03:08:15;100169.25;;;21.10;41.72
25084;BME280;13075;55.682;37.564;2023-05-14T03:10:40;100172.94;;;21.04;41.62
25084;BME280;13075;55.682;37.564;2023-05-14T03:13:05;100169.25;;;21.10;41.56
25084;BME280;13075;55.682;37.564;2023-05-14T03:15:31;100174.66;;;21.32;41.16
25084;BME280;13075;55.682;37.564;2023-05-14T03:17:56;100179.38;;;21.63;40.71
25084;BME280;13075;55.682;37.564;2023-05-14T03:20:23;100174.63;;;21.76;40.36
25084;BME280;13075;55.682;37.564;2023-05-14T03:22:48;100175.94;;;22.31;39.54
25084;BME280;13075;55.682;37.564;2023-05-14T03:25:14;100166.19;;;22.41;39.55
25084;BME280;13075;55.682;37.564;2023-05-14T03:27:39;100171.25;;;24.08;37.02
25084;BME280;13075;55.682;37.564;2023-05-14T03:30:05;100177.03;;;23.19;37.77
25084;BME280;13075;55.682;37.564;2023-05-14T03:32:30;100175.59;;;23.02;38.20
25084;BME280;13075;55.682;37.564;2023-05-14T03:34:56;100181.34;;;22.26;39.52
25084;BME280;13075;55.682;37.564;2023-05-14T03:37:21;100180.22;;;22.22;39.70
25084;BME280;13075;55.682;37.564;2023-05-14T03:39:47;100179.56;;;21.84;40.23
25084;BME280;13075;55.682;37.564;2023-05-14T03:42:12;100186.00;;;22.31;39.86
25084;BME280;13075;55.682;37.564;2023-05-14T03:44:38;100186.28;;;21.98;40.10
25084;BME280;13075;55.682;37.564;2023-05-14T03:47:03;100182.91;;;21.86;40.62
25084;BME280;13075;55.682;37.564;2023-05-14T03:49:29;100185.00;;;21.84;40.74
25084;BME280;13075;55.682;37.564;2023-05-14T03:51:55;100189.94;;;21.33;41.41
25084;BME280;13075;55.682;37.564;2023-05-14T03:54:22;100195.53;;;21.70;40.90
25084;BME280;13075;55.682;37.564;2023-05-14T03:56:47;100200.50;;;21.51;40.95
25084;BME280;13075;55.682;37.564;2023-05-14T03:59:13;100189.75;;;21.66;41.16
25084;BME280;13075;55.682;37.564;2023-05-14T04:01:38;100193.13;;;22.00;40.71
25084;BME280;13075;55.682;37.564;2023-05-14T04:04:04;100191.75;;;21.76;40.93
25084;BME280;13075;55.682;37.564;2023-05-14T04:06:29;100203.34;;;21.40;41.41
25084;BME280;13075;55.682;37.564;2023-05-14T04:08:55;100207.44;;;21.42;41.41
25084;BME280;13075;55.682;37.564;2023-05-14T04:11:20;100194.44;;;21.71;41.01
25084;BME280;13075;55.682;37.564;2023-05-14T04:13:47;100197.66;;;21.90;40.76
25084;BME280;13075;55.682;37.564;2023-05-14T04:16:13;100209.03;;;22.13;40.66
25084;BME280;13075;55.682;37.564;2023-05-14T04:18:39;100199.06;;;22.24;40.42
25084;BME280;13075;55.682;37.564;2023-05-14T04:21:04;100202.13;;;22.01;40.53
25084;BME280;13075;55.682;37.564;2023-05-14T04:23:30;100198.16;;;22.13;40.19
25084;BME280;13075;55.682;37.564;2023-05-14T04:25:56;100197.09;;;22.56;39.65
25084;BME280;13075;55.682;37.564;2023-05-14T04:28:22;100196.13;;;22.35;40.14
25084;BME280;13075;55.682;37.564;2023-05-14T04:30:47;100196.81;;;21.89;40.16
25084;BME280;13075;55.682;37.564;2023-05-14T04:33:13;100201.03;;;21.75;40.26
25084;BME280;13075;55.682;37.564;2023-05-14T04:35:38;100191.00;;;22.39;39.55
25084;BME280;13075;55.682;37.564;2023-05-14T04:38:03;100196.91;;;22.31;39.69
25084;BME280;13075;55.682;37.564;2023-05-14T04:40:30;100194.81;;;22.75;38.93
25084;BME280;13075;55.682;37.564;2023-05-14T04:42:56;100210.44;;;22.16;39.93
25084;BME280;13075;55.682;37.564;2023-05-14T04:45:21;100198.63;;;22.79;38.87
25084;BME280;13075;55.682;37.564;2023-05-14T04:47:47;100198.88;;;22.72;38.88
25084;BME280;13075;55.682;37.564;2023-05-14T04:50:12;100197.97;;;22.62;39.29
25084;BME280;13075;55.682;37.564;2023-05-14T04:52:38;100204.03;;;23.21;38.00
25084;BME280;13075;55.682;37.564;2023-05-14T04:55:04;100193.91;;;23.11;38.55
25084;BME280;13075;55.682;37.564;2023-05-14T04:57:29;100202.78;;;23.38;38.02
25084;BME280;13075;55.682;37.564;2023-05-14T04:59:55;100207.50;;;23.53;38.56
25084;BME280;13075;55.682;37.564;2023-05-14T05:02:20;100216.16;;;22.83;38.90
25084;BME280;13075;55.682;37.564;2023-05-14T05:04:45;100205.00;;;23.46;37.88
25084;BME280;13075;55.682;37.564;2023-05-14T05:07:11;100209.41;;;23.63;37.42
25084;BME280;13075;55.682;37.564;2023-05-14T05:09:37;100209.69;;;23.56;37.60
25084;BME280;13075;55.682;37.564;2023-05-14T05:12:03;100209.91;;;23.44;37.59
25084;BME280;13075;55.682;37.564;2023-05-14T05:14:28;100212.34;;;22.84;39.02
25084;BME280;13075;55.682;37.564;2023-05-14T05:16:54;100205.19;;;22.78;38.78
25084;BME280;13075;55.682;37.564;2023-05-14T05:19:19;100204.44;;;23.44;38.19
25084;BME280;13075;55.682;37.564;2023-05-14T05:21:45;100208.38;;;23.74;37.93
25084;BME280;13075;55.682;37.564;2023-05-14T05:24:10;100208.06;;;23.03;38.39
25084;BME280;13075;55.682;37.564;2023-05-14T05:26:37;100214.25;;;22.52;39.02
25084;BME280;13075;55.682;37.564;2023-05-14T05:29:03;100208.81;;;22.88;38.40
25084;BME280;13075;55.682;37.564;2023-05-14T05:31:29;100205.69;;;23.22;38.35
25084;BME280;13075;55.682;37.564;2023-05-14T05:33:54;100206.88;;;22.84;38.72
25084;BME280;13075;55.682;37.564;2023-05-14T05:36:20;100211.91;;;23.02;38.61
25084;BME280;13075;55.682;37.564;2023-05-14T05:38:45;100209.41;;;23.01;37.99
25084;BME280;13075;55.682;37.564;2023-05-14T05:41:10;100209.78;;;23.19;37.80
25084;BME280;13075;55.682;37.564;2023-05-14T05:43:36;100206.97;;;23.66;36.85
25084;BME280;13075;55.682;37.564;2023-05-14T05:46:01;100205.88;;;23.62;36.62
25084;BME280;13075;55.682;37.564;2023-05-14T05:48:27;100195.91;;;23.36;36.63
25084;BME280;13075;55.682;37.564;2023-05-14T05:50:52;100196.78;;;23.41;36.72
25084;BME280;13075;55.682;37.564;2023-05-14T05:53:18;100198.03;;;21.77;38.72
25084;BME280;13075;55.682;37.564;2023-05-14T05:55:43;100191.75;;;22.29;38.66
25084;BME280;13075;55.682;37.564;2023-05-14T05:58:09;100187.03;;;23.66;36.95
25084;BME280;13075;55.682;37.564;2023-05-14T06:00:34;100180.22;;;23.88;36.15
25084;BME280;13075;55.682;37.564;2023-05-14T06:03:00;100181.22;;;23.42;36.57
25084;BME280;13075;55.682;37.564;2023-05-14T06:05:25;100180.13;;;23.38;36.50
25084;BME280;13075;55.682;37.564;2023-05-14T06:07:51;100186.59;;;23.22;36.61
25084;BME280;13075;55.682;37.564;2023-05-14T06:10:19;100181.81;;;23.59;35.98
25084;BME280;13075;55.682;37.564;2023-05-14T06:12:45;100175.56;;;23.79;36.10
25084;BME280;13075;55.682;37.564;2023-05-14T06:15:10;100183.25;;;23.05;36.71
25084;BME280;13075;55.682;37.564;2023-05-14T06:17:36;100186.84;;;24.28;35.10
25084;BME280;13075;55.682;37.564;2023-05-14T06:20:02;100186.28;;;24.46;34.98
25084;BME280;13075;55.682;37.564;2023-05-14T06:22:29;100185.16;;;23.96;35.98
25084;BME280;13075;55.682;37.564;2023-05-14T06:24:55;100188.94;;;24.96;34.46
25084;BME280;13075;55.682;37.564;2023-05-14T06:27:20;100168.75;;;26.29;33.24
25084;BME280;13075;55.682;37.564;2023-05-14T06:29:46;100183.22;;;26.00;33.19
25084;BME280;13075;55.682;37.564;2023-05-14T06:32:11;100182.94;;;24.89;33.99
25084;BME280;13075;55.682;37.564;2023-05-14T06:34:39;100183.03;;;26.26;32.47
25084;BME280;13075;55.682;37.564;2023-05-14T06:37:05;100179.78;;;30.35;27.79
25084;BME280;13075;55.682;37.564;2023-05-14T06:39:31;100180.75;;;36.60;22.19
25084;BME280;13075;55.682;37.564;2023-05-14T06:41:56;100167.91;;;41.09;18.66
25084;BME280;13075;55.682;37.564;2023-05-14T06:44:22;100180.09;;;39.24;19.35
25084;BME280;13075;55.682;37.564;2023-05-14T06:46:47;100164.91;;;37.61;19.57
25084;BME280;13075;55.682;37.564;2023-05-14T06:49:13;100164.59;;;35.70;21.00
25084;BME280;13075;55.682;37.564;2023-05-14T06:51:38;100174.38;;;32.13;23.54
25084;BME280;13075;55.682;37.564;2023-05-14T06:54:04;100170.75;;;31.61;23.67
25084;BME280;13075;55.682;37.564;2023-05-14T06:56:30;100176.13;;;32.09;23.44
25084;BME280;13075;55.682;37.564;2023-05-14T06:58:55;100162.75;;;33.29;22.56
25084;BME280;13075;55.682;37.564;2023-05-14T07:01:21;100168.78;;;41.82;17.37
25084;BME280;13075;55.682;37.564;2023-05-14T07:03:46;100170.88;;;40.83;16.75
25084;BME280;13075;55.682;37.564;2023-05-14T07:06:13;100183.09;;;34.24;20.43
25084;BME280;13075;55.682;37.564;2023-05-14T07:08:39;100183.94;;;31.72;22.73
25084;BME280;13075;55.682;37.564;2023-05-14T07:11:05;100190.25;;;31.08;23.89
25084;BME280;13075;55.682;37.564;2023-05-14T07:13:30;100185.81;;;28.56;26.18
25084;BME280;13075;55.682;37.564;2023-05-14T07:15:55;100188.88;;;28.22;26.72
25084;BME280;13075;55.682;37.564;2023-05-14T07:18:21;100192.25;;;27.63;27.04
25084;BME280;13075;55.682;37.564;2023-05-14T07:20:47;100187.34;;;27.37;28.01
25084;BME280;13075;55.682;37.564;2023-05-14T07:23:12;100192.09;;;26.55;28.34
25084;BME280;13075;55.682;37.564;2023-05-14T07:25:38;100201.34;;;26.64;28.32
25084;BME280;13075;55.682;37.564;2023-05-14T07:28:03;100210.03;;;26.14;29.48
25084;BME280;13075;55.682;37.564;2023-05-14T07:30:29;100200.19;;;26.70;28.56
25084;BME280;13075;55.682;37.564;2023-05-14T07:32:54;100210.38;;;29.53;25.70
25084;BME280;13075;55.682;37.564;2023-05-14T07:35:20;100204.06;;;28.52;26.16
25084;BME280;13075;55.682;37.564;2023-05-14T07:37:45;100201.81;;;28.22;26.85
25084;BME280;13075;55.682;37.564;2023-05-14T07:40:11;100199.66;;;38.56;19.16
25084;BME280;13075;55.682;37.564;2023-05-14T07:42:36;100195.25;;;42.92;16.32
25084;BME280;13075;55.682;37.564;2023-05-14T07:45:02;100194.19;;;46.67;13.79
25084;BME280;13075;55.682;37.564;2023-05-14T07:47:28;100198.81;;;37.60;18.00
25084;BME280;13075;55.682;37.564;2023-05-14T07:49:54;100193.13;;;34.82;20.20
25084;BME280;13075;55.682;37.564;2023-05-14T07:52:20;100198.09;;;36.25;19.90
25084;BME280;13075;55.682;37.564;2023-05-14T07:54:45;100186.97;;;33.41;21.08
25084;BME280;13075;55.682;37.564;2023-05-14T07:57:11;100191.78;;;31.87;22.66
25084;BME280;13075;55.682;37.564;2023-05-14T07:59:36;100190.50;;;30.89;23.45
25084;BME280;13075;55.682;37.564;2023-05-14T08:02:02;100199.47;;;29.07;24.73
25084;BME280;13075;55.682;37.564;2023-05-14T08:04:27;100206.91;;;28.79;25.54
25084;BME280;13075;55.682;37.564;2023-05-14T08:06:52;100205.69;;;28.53;25.57
25084;BME280;13075;55.682;37.564;2023-05-14T08:09:19;100222.44;;;27.68;26.18
25084;BME280;13075;55.682;37.564;2023-05-14T08:11:44;100213.22;;;27.36;26.59
25084;BME280;13075;55.682;37.564;2023-05-14T08:14:10;100217.59;;;27.60;26.60
25084;BME280;13075;55.682;37.564;2023-05-14T08:16:35;100213.34;;;28.24;26.11
25084;BME280;13075;55.682;37.564;2023-05-14T08:19:01;100212.69;;;27.76;26.06
25084;BME280;13075;55.682;37.564;2023-05-14T08:21:26;100208.25;;;27.38;26.49
25084;BME280;13075;55.682;37.564;2023-05-14T08:23:52;100212.38;;;27.96;26.34
25084;BME280;13075;55.682;37.564;2023-05-14T08:26:17;100206.44;;;27.89;27.01
25084;BME280;13075;55.682;37.564;2023-05-14T08:28:43;100208.19;;;26.95;27.63
25084;BME280;13075;55.682;37.564;2023-05-14T08:31:08;100210.22;;;26.85;28.46
25084;BME280;13075;55.682;37.564;2023-05-14T08:33:34;100210.28;;;26.80;28.62
25084;BME280;13075;55.682;37.564;2023-05-14T08:35:59;100203.44;;;26.77;29.37
25084;BME280;13075;55.682;37.564;2023-05-14T08:38:25;100211.91;;;26.52;28.66
25084;BME280;13075;55.682;37.564;2023-05-14T08:40:55;100210.91;;;26.38;28.96
25084;BME280;13075;55.682;37.564;2023-05-14T08:43:24;100210.19;;;26.56;28.51
25084;BME280;13075;55.682;37.564;2023-05-14T08:45:51;100206.72;;;26.12;29.05
25084;BME280;13075;55.682;37.564;2023-05-14T08:48:18;100216.88;;;26.16;29.64
25084;BME280;13075;55.682;37.564;2023-05-14T08:50:45;100208.47;;;25.97;29.95
25084;BME280;13075;55.682;37.564;2023-05-14T08:53:10;100209.84;;;25.51;29.94
25084;BME280;13075;55.682;37.564;2023-05-14T08:55:36;100208.50;;;25.92;30.43
25084;BME280;13075;55.682;37.564;2023-05-14T08:58:01;100205.38;;;24.91;30.98
25084;BME280;13075;55.682;37.564;2023-05-14T09:00:27;100213.44;;;25.36;30.25
25084;BME280;13075;55.682;37.564;2023-05-14T09:02:52;100209.47;;;25.73;30.39
25084;BME280;13075;55.682;37.564;2023-05-14T09:05:18;100205.34;;;25.75;30.28
25084;BME280;13075;55.682;37.564;2023-05-14T09:07:44;100212.19;;;25.73;30.76
25084;BME280;13075;55.682;37.564;2023-05-14T09:10:10;100210.47;;;26.26;30.17
25084;BME280;13075;55.682;37.564;2023-05-14T09:12:36;100212.78;;;26.09;30.01
25084;BME280;13075;55.682;37.564;2023-05-14T09:15:01;100209.94;;;26.24;30.04
25084;BME280;13075;55.682;37.564;2023-05-14T09:17:27;100214.53;;;25.89;30.68
25084;BME280;13075;55.682;37.564;2023-05-14T09:19:53;100206.69;;;25.14;30.64
25084;BME280;13075;55.682;37.564;2023-05-14T09:22:18;100212.06;;;25.93;30.14
25084;BME280;13075;55.682;37.564;2023-05-14T09:24:44;100214.03;;;25.87;30.58
25084;BME280;13075;55.682;37.564;2023-05-14T09:27:14;100210.31;;;25.63;30.09
25084;BME280;13075;55.682;37.564;2023-05-14T09:29:42;100207.81;;;26.16;30.53
25084;BME280;13075;55.682;37.564;2023-05-14T09:32:07;100210.69;;;25.95;30.04
25084;BME280;13075;55.682;37.564;2023-05-14T09:34:34;100194.41;;;26.14;29.60
25084;BME280;13075;55.682;37.564;2023-05-14T09:37:04;100193.25;;;26.49;28.70
25084;BME280;13075;55.682;37.564;2023-05-14T09:39:30;100197.13;;;26.77;29.14
25084;BME280;13075;55.682;37.564;2023-05-14T09:41:56;100199.56;;;27.49;28.31
25084;BME280;13075;55.682;37.564;2023-05-14T09:44:22;100195.84;;;26.93;28.40
25084;BME280;13075;55.682;37.564;2023-05-14T09:46:48;100191.81;;;26.56;30.02
25084;BME280;13075;55.682;37.564;2023-05-14T09:49:14;100195.56;;;25.98;29.19
25084;BME280;13075;55.682;37.564;2023-05-14T09:51:39;100199.31;;;25.68;29.25
25084;BME280;13075;55.682;37.564;2023-05-14T09:54:05;100196.66;;;26.36;28.92
25084;BME280;13075;55.682;37.564;2023-05-14T09:56:31;100190.84;;;26.42;28.52
25084;BME280;13075;55.682;37.564;2023-05-14T09:58:57;100191.38;;;26.44;28.38
25084;BME280;13075;55.682;37.564;2023-05-14T10:01:23;100181.06;;;26.60;28.39
25084;BME280;13075;55.682;37.564;2023-05-14T10:03:48;100190.06;;;27.18;28.79
25084;BME280;13075;55.682;37.564;2023-05-14T10:06:15;100179.38;;;26.93;29.16
25084;BME280;13075;55.682;37.564;2023-05-14T10:08:42;100187.72;;;26.54;28.87
25084;BME280;13075;55.682;37.564;2023-05-14T10:11:12;100183.59;;;26.85;28.65
25084;BME280;13075;55.682;37.564;2023-05-14T10:13:41;100191.88;;;26.80;28.80
25084;BME280;13075;55.682;37.564;2023-05-14T10:16:15;100183.94;;;26.16;29.04
25084;BME280;13075;55.682;37.564;2023-05-14T10:18:42;100181.13;;;26.55;29.16
25084;BME280;13075;55.682;37.564;2023-05-14T10:21:12;100185.22;;;26.29;28.64
25084;BME280;13075;55.682;37.564;2023-05-14T10:23:38;100179.72;;;26.57;28.63
25084;BME280;13075;55.682;37.564;2023-05-14T10:26:05;100175.28;;;26.61;28.20
25084;BME280;13075;55.682;37.564;2023-05-14T10:28:31;100177.56;;;27.07;27.50
25084;BME280;13075;55.682;37.564;2023-05-14T10:30:56;100183.72;;;26.41;28.35
25084;BME280;13075;55.682;37.564;2023-05-14T10:33:23;100191.75;;;26.33;28.77
25084;BME280;13075;55.682;37.564;2023-05-14T10:35:49;100186.56;;;26.31;29.14
25084;BME280;13075;55.682;37.564;2023-05-14T10:38:15;100186.25;;;25.94;29.65
25084;BME280;13075;55.682;37.564;2023-05-14T10:40:41;100186.25;;;26.33;29.77
25084;BME280;13075;55.682;37.564;2023-05-14T10:43:06;100179.31;;;26.69;29.21
25084;BME280;13075;55.682;37.564;2023-05-14T10:45:33;100184.53;;;26.42;29.89
25084;BME280;13075;55.682;37.564;2023-05-14T10:47:58;100188.81;;;26.24;29.38
25084;BME280;13075;55.682;37.564;2023-05-14T10:50:24;100185.63;;;26.07;28.93
25084;BME280;13075;55.682;37.564;2023-05-14T10:52:50;100190.66;;;26.34;28.75
25084;BME280;13075;55.682;37.564;2023-05-14T10:55:16;100178.91;;;26.86;28.19
25084;BME280;13075;55.682;37.564;2023-05-14T10:57:43;100172.03;;;26.88;27.86
25084;BME280;13075;55.682;37.564;2023-05-14T11:00:09;100167.88;;;27.75;27.21
25084;BME280;13075;55.682;37.564;2023-05-14T11:02:35;100163.09;;;28.00;27.34
25084;BME280;13075;55.682;37.564;2023-05-14T11:05:02;100160.59;;;27.85;28.06
25084;BME280;13075;55.682;37.564;2023-05-14T11:07:32;100171.16;;;27.35;28.34
25084;BME280;13075;55.682;37.564;2023-05-14T11:10:02;100170.09;;;26.60;28.96
25084;BME280;13075;55.682;37.564;2023-05-14T11:12:28;100186.16;;;26.14;29.48
25084;BME280;13075;55.682;37.564;2023-05-14T11:14:57;100176.69;;;25.48;30.35
25084;BME280;13075;55.682;37.564;2023-05-14T11:17:26;100180.03;;;25.88;30.42
25084;BME280;13075;55.682;37.564;2023-05-14T11:19:53;100184.34;;;25.51;30.66
25084;BME280;13075;55.682;37.564;2023-05-14T11:22:19;100184.84;;;25.58;30.46
25084;BME280;13075;55.682;37.564;2023-05-14T11:24:45;100174.81;;;25.87;30.15
25084;BME280;13075;55.682;37.564;2023-05-14T11:27:10;100179.34;;;26.07;29.96
25084;BME280;13075;55.682;37.564;2023-05-14T11:29:36;100185.22;;;26.29;30.13
25084;BME280;13075;55.682;37.564;2023-05-14T11:32:03;100181.25;;;25.67;29.33
25084;BME280;13075;55.682;37.564;2023-05-14T11:34:30;100169.19;;;25.63;29.72
25084;BME280;13075;55.682;37.564;2023-05-14T11:36:55;100177.72;;;26.00;29.47
25084;BME280;13075;55.682;37.564;2023-05-14T11:39:21;100174.28;;;26.24;29.42
25084;BME280;13075;55.682;37.564;2023-05-14T11:41:46;100168.19;;;25.93;30.12
25084;BME280;13075;55.682;37.564;2023-05-14T11:44:12;100180.56;;;26.29;30.10
25084;BME280;13075;55.682;37.564;2023-05-14T11:46:37;100179.63;;;26.39;29.86
25084;BME280;13075;55.682;37.564;2023-05-14T11:49:03;100175.91;;;25.91;29.86
25084;BME280;13075;55.682;37.564;2023-05-14T11:51:29;100179.59;;;25.66;30.20
25084;BME280;13075;55.682;37.564;2023-05-14T11:53:54;100179.47;;;25.32;30.38
25084;BME280;13075;55.682;37.564;2023-05-14T11:56:20;100177.78;;;25.52;30.34
25084;BME280;13075;55.682;37.564;2023-05-14T11:58:48;100166.66;;;25.77;29.79
25084;BME280;13075;55.682;37.564;2023-05-14T12:01:14;100176.81;;;25.71;29.55
25084;BME280;13075;55.682;37.564;2023-05-14T12:03:40;100168.78;;;25.85;29.62
25084;BME280;13075;55.682;37.564;2023-05-14T12:06:06;100175.81;;;25.62;30.01
25084;BME280;13075;55.682;37.564;2023-05-14T12:08:32;100174.31;;;25.80;29.74
25084;BME280;13075;55.682;37.564;2023-05-14T12:10:58;100172.50;;;26.04;29.25
25084;BME280;13075;55.682;37.564;2023-05-14T12:13:28;100172.75;;;25.69;29.63
25084;BME280;13075;55.682;37.564;2023-05-14T12:15:55;100173.22;;;25.81;29.36
25084;BME280;13075;55.682;37.564;2023-05-14T12:18:21;100173.13;;;26.30;29.05
25084;BME280;13075;55.682;37.564;2023-05-14T12:20:47;100166.22;;;26.37;29.18
25084;BME280;13075;55.682;37.564;2023-05-14T12:23:12;100167.66;;;26.30;29.25
25084;BME280;13075;55.682;37.564;2023-05-14T12:25:38;100175.28;;;25.94;29.79
25084;BME280;13075;55.682;37.564;2023-05-14T12:28:13;100159.59;;;26.38;29.39
25084;BME280;13075;55.682;37.564;2023-05-14T12:30:39;100171.59;;;26.19;30.27
25084;BME280;13075;55.682;37.564;2023-05-14T12:33:05;100172.66;;;25.79;29.98
25084;BME280;13075;55.682;37.564;2023-05-14T12:35:31;100159.56;;;25.71;30.31
25084;BME280;13075;55.682;37.564;2023-05-14T12:37:56;100163.63;;;25.78;30.23
25084;BME280;13075;55.682;37.564;2023-05-14T12:40:22;100167.84;;;25.61;30.43
25084;BME280;13075;55.682;37.564;2023-05-14T12:42:47;100174.69;;;26.02;30.16
25084;BME280;13075;55.682;37.564;2023-05-14T12:45:13;100168.19;;;25.93;29.69